createdAt,value
2017-09-18T00:00:17.166Z,4.00
2017-09-18T00:05:19.033Z,4.10
2017-09-18T00:10:20.904Z,4.03
2017-09-18T00:15:23.397Z,4.67
2017-09-18T00:20:25.181Z,4.83
2017-09-18T00:25:26.988Z,4.80
2017-09-18T00:30:28.728Z,5.63
2017-09-18T00:35:30.608Z,5.30
2017-09-18T00:40:32.492Z,4.83
2017-09-18T00:45:34.376Z,5.10
2017-09-18T00:50:36.287Z,5.23
2017-09-18T00:55:38.164Z,5.83
2017-09-18T01:00:40.018Z,5.67
2017-09-18T01:05:41.885Z,6.27
2017-09-18T01:10:43.732Z,5.50
2017-09-18T01:15:45.534Z,5.57
2017-09-18T01:20:47.258Z,4.73
2017-09-18T01:25:49.072Z,5.50
2017-09-18T01:30:50.943Z,5.70
2017-09-18T01:35:53.440Z,5.70
2017-09-18T01:40:55.395Z,5.40
2017-09-18T01:45:57.185Z,5.33
2017-09-18T01:50:59.674Z,4.80
2017-09-18T01:56:01.565Z,5.07
2017-09-18T02:01:03.429Z,5.00
2017-09-18T02:06:05.931Z,4.87
2017-09-18T02:11:07.809Z,4.90
2017-09-18T02:16:10.733Z,4.67
2017-09-18T02:21:12.489Z,5.17
2017-09-18T02:26:14.362Z,4.97
2017-09-18T02:31:16.220Z,5.70
2017-09-18T02:36:20.745Z,5.57
2017-09-18T02:41:38.407Z,6.63
2017-09-18T02:46:58.880Z,6.97
2017-09-18T02:52:18.465Z,7.27
2017-09-18T02:57:37.878Z,7.13
2017-09-18T03:02:57.565Z,6.73
2017-09-18T03:08:18.829Z,5.60
2017-09-18T03:13:38.707Z,5.47
2017-09-18T03:18:43.400Z,6.37
2017-09-18T03:23:45.304Z,6.70
2017-09-18T03:28:47.149Z,7.67
2017-09-18T03:33:48.913Z,7.60
2017-09-18T03:38:51.423Z,5.90
2017-09-18T03:43:53.347Z,6.87
2017-09-18T03:48:55.169Z,6.73
2017-09-18T03:53:57.060Z,7.53
2017-09-18T03:58:58.824Z,7.43
2017-09-18T04:04:00.940Z,6.77
2017-09-18T04:09:03.050Z,6.70
2017-09-18T04:14:04.927Z,6.83
2017-09-18T04:19:06.824Z,8.20
2017-09-18T04:24:08.758Z,8.37
2017-09-18T04:29:10.593Z,8.30
2017-09-18T04:34:14.112Z,6.77
2017-09-18T04:39:16.055Z,8.40
2017-09-18T04:44:17.937Z,8.20
2017-09-18T04:49:19.737Z,7.97
2017-09-18T04:54:22.508Z,8.70
2017-09-18T04:59:24.998Z,8.17
2017-09-18T05:04:27.779Z,7.93
2017-09-18T05:09:29.497Z,9.30
2017-09-18T05:14:32.001Z,8.23
2017-09-18T05:19:33.876Z,9.30
2017-09-18T05:24:38.179Z,9.10
2017-09-18T05:29:40.154Z,9.33
2017-09-18T05:34:43.228Z,9.50
2017-09-18T05:39:45.137Z,9.20
2017-09-18T05:44:46.950Z,9.73
2017-09-18T05:49:48.822Z,9.50
2017-09-18T05:54:51.383Z,9.20
2017-09-18T05:59:54.152Z,8.00
2017-09-18T06:04:56.033Z,8.07
2017-09-18T06:09:58.533Z,8.40
2017-09-18T06:15:00.400Z,8.30
2017-09-18T06:20:02.306Z,7.03
2017-09-18T06:25:05.004Z,7.40
2017-09-18T06:30:06.886Z,5.43
2017-09-18T06:35:09.720Z,6.93
2017-09-18T06:40:12.509Z,7.50
2017-09-18T06:45:15.073Z,6.33
2017-09-18T06:50:16.951Z,6.27
2017-09-18T06:55:18.827Z,5.97
2017-09-18T07:00:20.632Z,4.83
2017-09-18T07:05:23.770Z,6.50
2017-09-18T07:10:25.585Z,5.10
2017-09-18T07:15:28.420Z,4.47
2017-09-18T07:20:30.854Z,3.93
2017-09-18T07:25:32.654Z,3.90
2017-09-18T07:30:34.465Z,3.73
2017-09-18T07:35:36.406Z,3.73
2017-09-18T07:40:38.387Z,3.97
2017-09-18T07:45:40.237Z,3.67
2017-09-18T07:50:42.142Z,3.80
2017-09-18T07:55:44.019Z,3.50
2017-09-18T08:00:45.838Z,3.00
2017-09-18T08:05:48.695Z,3.67
2017-09-18T08:10:50.553Z,3.87
2017-09-18T08:15:53.317Z,5.00
2017-09-18T08:20:57.132Z,5.70
2017-09-18T08:26:00.095Z,5.20
2017-09-18T08:31:02.154Z,6.30
2017-09-18T08:36:04.261Z,6.40
2017-09-18T08:41:07.100Z,6.20
2017-09-18T08:46:08.939Z,5.30
2017-09-18T08:51:11.022Z,5.53
2017-09-18T08:56:12.833Z,4.90
2017-09-18T09:01:14.743Z,5.20
2017-09-18T09:06:18.132Z,5.80
2017-09-18T09:11:20.184Z,5.50
2017-09-18T09:16:23.886Z,5.50
2017-09-18T09:21:25.693Z,5.20
2017-09-18T09:26:28.359Z,5.23
2017-09-18T09:31:30.731Z,5.20
2017-09-18T09:36:32.643Z,5.00
2017-09-18T09:41:34.537Z,4.83
2017-09-18T09:46:36.421Z,4.47
2017-09-18T09:51:38.309Z,5.00
2017-09-18T09:56:40.060Z,4.80
2017-09-18T10:01:42.553Z,4.60
2017-09-18T10:06:45.361Z,4.40
2017-09-18T10:11:47.232Z,4.20
2017-09-18T10:16:50.748Z,5.20
2017-09-18T10:21:53.271Z,5.07
2017-09-18T10:26:55.008Z,4.33
2017-09-18T10:31:58.243Z,5.20
2017-09-18T10:36:59.996Z,5.63
2017-09-18T10:42:01.780Z,4.40
2017-09-18T10:47:03.585Z,3.93
2017-09-18T10:52:05.433Z,4.13
2017-09-18T10:57:07.211Z,3.63
2017-09-18T11:02:09.108Z,3.53
2017-09-18T11:07:10.960Z,3.73
2017-09-18T11:12:13.443Z,3.07
2017-09-18T11:17:15.940Z,3.50
2017-09-18T11:22:18.437Z,3.20
2017-09-18T11:27:20.331Z,3.10
2017-09-18T11:32:22.171Z,3.47
2017-09-18T11:37:24.675Z,3.07
2017-09-18T11:42:26.547Z,3.37
2017-09-18T11:47:29.057Z,2.43
2017-09-18T11:52:30.968Z,2.20
2017-09-18T11:57:32.787Z,2.00
2017-09-18T12:02:35.318Z,2.20
2017-09-18T12:07:37.081Z,2.47
2017-09-18T12:12:38.945Z,2.47
2017-09-18T12:17:42.460Z,2.20
2017-09-18T12:22:44.983Z,2.10
2017-09-18T12:27:46.837Z,2.93
2017-09-18T12:32:48.717Z,2.43
2017-09-18T12:37:50.586Z,1.87
2017-09-18T12:42:54.109Z,2.37
2017-09-18T12:47:55.989Z,2.60
2017-09-18T12:52:57.864Z,3.23
2017-09-18T12:57:59.628Z,2.00
2017-09-18T13:03:01.412Z,1.73
2017-09-18T13:08:03.299Z,1.60
2017-09-18T13:13:05.175Z,1.10
2017-09-18T13:18:07.866Z,1.10
2017-09-18T13:23:09.732Z,1.47
2017-09-18T13:28:11.512Z,1.70
2017-09-18T13:33:13.393Z,1.80
2017-09-18T13:38:15.267Z,2.00
2017-09-18T13:43:17.148Z,2.20
2017-09-18T13:48:19.021Z,1.80
2017-09-18T13:53:21.507Z,1.70
2017-09-18T13:58:23.284Z,1.50
2017-09-18T14:03:25.189Z,1.50
2017-09-18T14:08:27.081Z,1.77
2017-09-18T14:13:30.768Z,1.80
2017-09-18T14:18:32.648Z,1.80
2017-09-18T14:23:39.232Z,1.57
2017-09-18T14:28:41.111Z,1.50
2017-09-18T14:33:43.009Z,1.63
2017-09-18T14:38:44.933Z,1.80
2017-09-18T14:43:46.764Z,1.90
2017-09-18T14:48:48.633Z,1.80
2017-09-18T14:53:51.331Z,1.60
2017-09-18T14:58:53.208Z,1.87
2017-09-18T15:03:58.246Z,2.20
2017-09-18T15:09:00.024Z,1.80
2017-09-18T15:14:01.917Z,1.83
2017-09-18T15:19:03.677Z,1.90
2017-09-18T15:24:05.585Z,1.93
2017-09-18T15:29:07.449Z,1.80
2017-09-18T15:34:09.308Z,3.60
2017-09-18T15:39:12.837Z,1.83
2017-09-18T15:44:14.600Z,1.70
2017-09-18T15:49:16.790Z,1.67
2017-09-18T15:54:18.692Z,1.60
2017-09-18T15:59:20.532Z,1.47
2017-09-18T16:04:25.084Z,1.40
2017-09-18T16:09:26.859Z,1.40
2017-09-18T16:14:28.649Z,1.30
2017-09-18T16:19:30.517Z,1.50
2017-09-18T16:24:32.390Z,1.23
2017-09-18T16:29:34.336Z,1.67
2017-09-18T16:34:36.369Z,1.63
2017-09-18T16:39:38.232Z,1.53
2017-09-18T16:44:40.108Z,1.90
2017-09-18T16:49:41.972Z,8.57
2017-09-18T16:54:43.854Z,1.97
2017-09-18T16:59:45.624Z,2.00
2017-09-18T17:04:47.455Z,2.23
2017-09-18T17:09:49.300Z,2.60
2017-09-18T17:14:51.165Z,2.73
2017-09-18T17:19:53.089Z,2.77
2017-09-18T17:24:54.924Z,2.50
2017-09-18T17:29:56.792Z,3.27
2017-09-18T17:34:58.564Z,3.97
2017-09-18T17:40:00.441Z,2.80
2017-09-18T17:45:02.364Z,3.20
2017-09-18T17:50:04.218Z,2.93
2017-09-18T17:55:06.093Z,3.23
2017-09-18T18:00:07.964Z,2.70
2017-09-18T18:05:09.877Z,3.20
2017-09-18T18:10:12.731Z,3.90
2017-09-18T18:15:14.633Z,3.37
2017-09-18T18:20:22.369Z,3.20
2017-09-18T18:25:24.107Z,2.57
2017-09-18T18:30:25.920Z,2.60
2017-09-18T18:35:30.455Z,3.23
2017-09-18T18:40:35.701Z,2.10
2017-09-18T18:45:37.956Z,2.27
2017-09-18T18:50:39.837Z,1.80
2017-09-18T18:55:41.613Z,1.80
2017-09-18T19:00:43.501Z,1.87
2017-09-18T19:05:45.363Z,2.00
2017-09-18T19:10:47.168Z,1.63
2017-09-18T19:15:49.032Z,1.77
2017-09-18T19:20:52.916Z,2.37
2017-09-18T19:25:54.740Z,1.97
2017-09-18T19:30:56.605Z,2.03
2017-09-18T19:35:58.500Z,1.97
2017-09-18T19:41:00.423Z,1.70
2017-09-18T19:46:02.237Z,2.37
2017-09-18T19:51:04.226Z,1.60
2017-09-18T19:56:06.817Z,1.90
2017-09-18T20:01:08.689Z,2.20
2017-09-18T20:06:10.592Z,1.70
2017-09-18T20:11:12.536Z,1.90
2017-09-18T20:16:14.334Z,2.03
2017-09-18T20:21:16.306Z,2.37
2017-09-18T20:26:20.216Z,2.17
2017-09-18T20:31:23.021Z,2.60
2017-09-18T20:36:25.028Z,2.60
2017-09-18T20:41:26.804Z,2.43
2017-09-18T20:46:28.628Z,2.57
2017-09-18T20:51:31.136Z,2.30
2017-09-18T20:56:33.003Z,2.53
2017-09-18T21:01:35.536Z,2.53
2017-09-18T21:06:37.376Z,2.80
2017-09-18T21:11:39.900Z,2.70
2017-09-18T21:16:41.749Z,2.40
2017-09-18T21:21:43.629Z,2.90
2017-09-18T21:26:45.496Z,2.63
2017-09-18T21:31:47.489Z,4.27
2017-09-18T21:36:49.416Z,2.77
2017-09-18T21:41:51.293Z,2.20
2017-09-18T21:46:53.112Z,3.00
2017-09-18T21:51:54.835Z,2.70
2017-09-18T21:56:56.689Z,2.40
2017-09-18T22:01:58.550Z,2.40
2017-09-18T22:07:00.308Z,2.20
2017-09-18T22:12:02.820Z,2.73
2017-09-18T22:17:04.692Z,2.40
2017-09-18T22:22:06.568Z,3.00
2017-09-18T22:27:08.433Z,3.00
2017-09-18T22:32:10.973Z,3.17
2017-09-18T22:37:12.853Z,2.93
2017-09-18T22:42:14.692Z,3.57
2017-09-18T22:47:16.568Z,3.13
2017-09-18T22:52:18.443Z,2.40
2017-09-18T22:57:20.337Z,3.40
2017-09-18T23:02:22.248Z,3.57
2017-09-18T23:07:24.086Z,2.80
2017-09-18T23:12:25.961Z,2.60
2017-09-18T23:17:27.824Z,2.70
2017-09-18T23:22:30.320Z,3.10
2017-09-18T23:27:32.192Z,2.97
2017-09-18T23:32:34.691Z,3.40
2017-09-18T23:37:36.569Z,3.23
2017-09-18T23:42:38.453Z,3.20
2017-09-18T23:47:40.357Z,3.30
2017-09-18T23:52:42.191Z,3.10
2017-09-18T23:57:44.069Z,3.47
